Hlavní strana
METAR-TAF:

METAR-TAF

Letiště :

Caracas, Venezuela

zeměpisná šířka: 10-36N, zeměpisná délka: 066-59W, výška: 43 m

Aktuální stav počasí

Zpráva byla vytvořena před 28 minutami, v 23:00 UTC
Jihovýchodní vítr 2 kt
Teplota 27°C
Vlhkost vzduchu 79%
Tlak 1007 hPa
Viditelnost 10 km a více
Polojasno ve výšce 1600 ft

METAR: SVMI 152300Z 14002KT 9999 SCT016 27/23 Q1007

Čas: 19:28 (23:28 UTC)

Předpověď počasí

Zpráva byla vytvořena před 7 hodinami a 28 minutami, v 16:00 UTC
Předpověď platná od 15 v 18 UTC do 16 v 18 UTC
Východní vítr 6 kt
Viditelnost 10 km a více
Skoro jasno ve výšce 1600 ft
Od 15 v 1800 UTC
Severovýchodní vítr 6 kt
Polojasno ve výšce 1600 ft
Změna
od 15 v 22 UTC do 16 v 02 UTC
Východní vítr 2 kt
Skoro jasno ve výšce 1600 ft

TAF: SVMI 151600Z 1518/1618 09006KT 9999 FEW016 TX32/18Z TN24/08Z FM151800 04006KT SCT016 BECMG 1522/1602 09002KT FEW016

Stav a předpovědi počasí z více než 4 000 letišť (zprávy METAR a TAF).

Červené a žluté tečky na mapě představují dostupné meteorologické stanice.

Když kurzor umístíte na tečku, zobrazí se název stanice.

Pak kliknutím zobrazíte stav a předpověď počasí.

Chcete-li změnit mapu, kliknutím na zelené tlačítko se znaménkem +mapu přiblížíte, kliknutím na zelené tlačítko se znaménkem – mapu oddálíte a kliknutím na zelené šipky přejdete na sousední mapy.


METAR-TAF: